Arlington, Nebraska
Current Conditions -  °F | °C
As of 4:15 PM on Monday 26 Jan 2015 (Local Time) from KFET Reporting Station
Clear Clear  
Wind Chill: 58°   Ceiling: Unl
Heat Index: 58°   Visibility: 10mi
Dew Point: 33°   Wind: 14mph
Humidity: 40%   Direction: 320°NW
Pressure: 29.97"   Gusts: 21mph
Location:  41.45°N, 96.35°W
Report Text: KFET 262215Z AUTO 32012G18KT 10SM CLR 14/01 A2997 RMK AO2 T01420006
Loading
Personal Weather Stations






























Interactive Weather Map New forecast layout! Learn more

10-Day Weather Forecast

Advertisements
Track Severe Weather on mobile